Dixon, CA

2:09 PM PST on February 28, 2015 (GMT -0800)
Sacramento International | Change Station
CLOSE
Current Station
Airport
Location: Sacramento International,
Elevation: 26 ft
Nearby Weather Stations
Active Advisory: Hydrologic Statement

Elev 26 ft 38.70 °N, 121.59 °W | Updated 16 minutes ago

Mostly Cloudy
Mostly Cloudy
55 °F
Feels Like 55 °F
N
14
Wind Variable Wind from NE

Today
High -- | Low -- °F
--% Chance of Precip.
Yesterday
High -- | Low -- °F
Precip. -- in
6:40 AM 5:59 PM
Waxing Gibbous, 80% visible
Pressure 29.80 in
Visibility 10.0 miles
Clouds Few 2300 ft
Mostly Cloudy 3000 ft
Mostly Cloudy 3900 ft
Dew Point 46 °F
Humidity 72%
Rainfall 0.00 in
Snow Depth Not available.
UV 3 out of 12
Pollen 4.80 out of 12
Air Quality Not available.
Flu Activity Not available.
METAR KSMF 282153Z 04012KT 10SM FEW023 BKN030 BKN039 13/08 A2980 RMK AO2 SLP091 T01280078

More Conditions Fewer Conditions

Pressure 29.80 in
Visibility 10.0 miles
Clouds Few 2300 ft
Mostly Cloudy 3000 ft
Mostly Cloudy 3900 ft
Dew Point 46 °F
Humidity 72%
Rainfall 0.00 in
Snow Depth Not available.
UV 3 out of 12
Pollen 4.80 out of 12
Air Quality Not available.
Flu Activity Not available.
METAR KSMF 282153Z 04012KT 10SM FEW023 BKN030 BKN039 13/08 A2980 RMK AO2 SLP091 T01280078

More Conditions Fewer Conditions

10-Day Weather Forecast

Almanac

Astronomy

Feb. 28, 2015 Rise Set
Actual Time
Civil Twilight
Nautical Twilight
Astronomical Twilight
Moon
Length of Visible Light
Length of Day
Tomorrow will be .
, % of the Moon is Illuminated

Today's Extremes

State Highs State Lows

Community

WunderPhotos

Upload Photos

1,801,177 photos uploaded!

WunderBlogs® & News

Nearby

Air Quality

  Air Quality AQ Index Pollutant
Not available.

Snow Depth

Station Depth Elevation

Earthquake Activity

City Distance Mag. Time & Date
Minimum magnitude displayed is 2.5.

Coastal Water Temperatures

Place Temperature

Nearby Weather Stations

Hydrologic Statement
Statement as of 11:58 AM PST on February 28, 2015

Forecast information for
Sacramento River at Colusa bridge.
* At 11:45 am Saturday the stage was 41.9 feet.
* Forecast to fluctuate near 42.0 ft thru near Monday noon.
* Flood stage 70.0 ft
* monitor stage 63.0 ft


&&

Lat... Lon 3923 12214 3922 12188 3907 12180 3905 12196
      3922 12204